Dummer, New Hampshire
Current Conditions -  °F | °C
As of 7:52 AM on Monday 22 Dec 2014 (Local Time) from KBML Reporting Station
Overcast Overcast  
Wind Chill: 23°   Ceiling: 3400
Heat Index: 23°   Visibility: 7mi
Dew Point: 19°   Wind: 0mph
Humidity: 85%   Direction: NA
Pressure: 30.36"   Gusts: NA
Location:  44.6084°N, 71.1109°W
Report Text: KBML 221252Z AUTO 00000KT 7SM OVC034 M05/M07 A3036 RMK AO2 SLP300 T10501072
Loading
Personal Weather Stations






























Interactive Weather Map New forecast layout! Learn more

10-Day Weather Forecast

Advertisements
Track Severe Weather on mobile